Time;durP1;ratioP1;P1;durP2;ratioP2;P2;SDS_P1;SDS_P2;PMS_P1;PMS_P2;Temp;Humidity;BMP_temperature;BMP_pressure;BME280_temperature;BME280_humidity;BME280_pressure;Samples;Min_cycle;Max_cycle;Signal;HPM_P1;HPM_P2
2023/12/28 14:17:08;;;;;;;;;;;;;;;;;;4213366;27;1876;-56
2023/12/28 14:19:29;;;;;;;;;;;;;;;;;;4209903;28;1748;-62
2023/12/28 14:21:50;;;;;;;;;;;;;;;;;;4212774;28;1905;-61
2023/12/28 14:24:11;;;;;;;;;;;;;;;;;;4208476;28;1947;-62
2023/12/28 14:26:32;;;;;;;;;;;;;;;;;;4214132;28;1789;-60
2023/12/28 14:29:58;;;;;;;;;;;;;;;;;;4172926;27;13612;-56
2023/12/28 15:09:13;;;;;;;;;;;;;;;;;;4232501;27;1909;-59
2023/12/28 15:11:34;;;;;;;;;;;;;;;;;;4233414;28;1881;-59
2023/12/28 15:13:55;;;;;;;;;;;;;;;;;;4233066;27;1761;-58
2023/12/28 15:16:16;;;;;;;;;;;;;;;;;;4233358;28;1782;-58
2023/12/28 15:21:52;;;;;;;;;;;;;;;;;;4232593;27;1985;-56
2023/12/28 15:26:15;;;;;;;;;;;;;;;;;;4188769;27;66202;-56
2023/12/28 15:30:01;;;;;;;;;;;;;;;;;;4191515;27;12293;-56
2023/12/28 15:38:30;;;;;;;;;;;;;;;;;;4241088;27;1033;-95
2023/12/28 15:40:51;;;;;;;;;;;;;;;;;;4254290;27;992;-96
2023/12/28 15:43:12;;;;;;;;;;;;;;;;;;4255480;27;923;-96
2023/12/28 15:45:34;;;;;;;;;;;;;;;;;;4256527;27;994;-95
2023/12/28 16:20:04;;;;;;;;;;;;;;;;;;4166554;28;1572;-92
2023/12/28 16:22:38;;;;;;;;;;;;;;;;;;4099740;28;2111;-88
2023/12/28 16:25:01;;;;;;;;;;;;;;;;;;4099823;29;1950;-89
2023/12/28 16:30:07;;;;;;;;;;;;;;;;;;4034821;29;2732;-61
2023/12/28 16:32:28;;;;;;;;;;;;;;;;;;4058242;29;1537;-61
2023/12/28 16:34:49;;;;;;;;;;;;;;;;;;4052578;29;1651;-63
2023/12/28 16:37:09;;;;;;;;;;;;;;;;;;4038629;29;1050;-63
2023/12/28 16:39:31;;;;;;;;;;;;;;;;;;4059959;29;2054;-61
2023/12/28 16:41:51;;;;;;;;;;;;;;;;;;4055227;29;1545;-61
2023/12/28 16:44:13;;;;;;;;;;;;;;;;;;4055102;29;1990;-61
2023/12/28 16:47:28;;;;;;;;;;;;;;;;;;4204540;27;9542;-63
2023/12/28 16:49:49;;;;;;;;;;;;;;;;;;4194220;28;1744;-65
2023/12/28 16:52:12;;;;;;;;;;;;;;;;;;4198770;28;1346;-68
2023/12/28 16:54:34;;;;;;;;;;;;;;;;;;4194892;28;1452;-65
2023/12/28 16:56:55;;;;;;;;;;;;;;;;;;4189217;28;1431;-65
2023/12/28 16:59:16;;;;;;;;;;;;;;;;;;4194389;28;1822;-65
2023/12/28 17:01:37;;;;;;;;;;;;;;;;;;4198652;28;1578;-65
2023/12/28 17:03:58;;;;;;;;;;;;;;;;;;4200452;28;1515;-66
2023/12/28 17:06:19;;;;;;;;;;;;;;;;;;4197410;28;2024;-65
2023/12/28 17:08:39;;;;;;;;;;;;;;;;;;4196542;28;2535;-65
2023/12/28 17:11:00;;;;;;;;;;;;;;;;;;4196279;28;2525;-65
2023/12/28 17:13:22;;;;;;;;;;;;;;;;;;4192034;28;2334;-65
2023/12/28 17:15:42;;;;;;;;;;;;;;;;;;4198249;28;1500;-66
2023/12/28 17:18:04;;;;;;;;;;;;;;;;;;4200218;28;952;-65
2023/12/28 17:20:24;;;;;;;;;;;;;;;;;;4199895;28;1696;-65
2023/12/28 17:22:45;;;;;;;;;;;;;;;;;;4198659;28;889;-65
2023/12/28 17:25:06;;;;;;;;;;;;;;;;;;4199127;28;1543;-65
2023/12/28 17:27:27;;;;;;;;;;;;;;;;;;4200286;28;1909;-65
2023/12/28 17:29:48;;;;;;;;;;;;;;;;;;4199911;28;1640;-66
2023/12/28 17:32:10;;;;;;;;;;;;;;;;;;4200206;28;1111;-65
2023/12/28 17:34:30;;;;;;;;;;;;;;;;;;4199102;28;1173;-65
2023/12/28 17:36:52;;;;;;;;;;;;;;;;;;4199815;28;942;-66
2023/12/28 17:39:12;;;;;;;;;;;;;;;;;;4198938;28;1987;-65
2023/12/28 17:41:33;;;;;;;;;;;;;;;;;;4199131;28;869;-65
2023/12/28 17:43:54;;;;;;;;;;;;;;;;;;4200162;28;924;-66
2023/12/28 17:46:18;;;;;;;;;;;;;;;;;;4199719;28;1980;-66
2023/12/28 17:48:39;;;;;;;;;;;;;;;;;;4198701;28;1021;-66
2023/12/28 17:51:00;;;;;;;;;;;;;;;;;;4199951;28;1287;-67
2023/12/28 17:53:20;;;;;;;;;;;;;;;;;;4199969;28;781;-66
2023/12/28 17:55:41;;;;;;;;;;;;;;;;;;4198886;28;1542;-66
2023/12/28 17:58:05;;;;;;;;;;;;;;;;;;4193182;28;1095;-67
2023/12/28 18:00:28;;;;;;;;;;;;;;;;;;4187527;28;2128;-65
2023/12/28 18:02:48;;;;;;;;;;;;;;;;;;4188736;28;1137;-66
2023/12/28 18:05:09;;;;;;;;;;;;;;;;;;4188858;28;1492;-66
2023/12/28 18:07:30;;;;;;;;;;;;;;;;;;4188353;28;1984;-65
2023/12/28 18:09:52;;;;;;;;;;;;;;;;;;4189114;28;2089;-66
2023/12/28 18:12:12;;;;;;;;;;;;;;;;;;4187665;28;816;-65
2023/12/28 18:14:33;;;;;;;;;;;;;;;;;;4187128;28;1448;-66
2023/12/28 18:16:55;;;;;;;;;;;;;;;;;;4187235;28;1098;-65
2023/12/28 18:19:16;;;;;;;;;;;;;;;;;;4202010;28;1761;-65
2023/12/28 18:21:38;;;;;;;;;;;;;;;;;;4173177;28;809;-65
2023/12/28 18:23:59;;;;;;;;;;;;;;;;;;4173877;28;848;-65
2023/12/28 18:26:20;;;;;;;;;;;;;;;;;;4188074;28;1909;-66
2023/12/28 18:28:42;;;;;;;;;;;;;;;;;;4188526;28;863;-65
2023/12/28 18:31:03;;;;;;;;;;;;;;;;;;4188229;28;1263;-65
2023/12/28 18:33:24;;;;;;;;;;;;;;;;;;4188020;28;1042;-68
2023/12/28 18:35:45;;;;;;;;;;;;;;;;;;4188115;28;1441;-67
2023/12/28 18:38:06;;;;;;;;;;;;;;;;;;4188677;28;756;-66
2023/12/28 18:40:26;;;;;;;;;;;;;;;;;;4188045;28;2045;-65
2023/12/28 18:42:48;;;;;;;;;;;;;;;;;;4187129;28;861;-66
2023/12/28 18:45:11;;;;;;;;;;;;;;;;;;4175389;28;1476;-65
2023/12/28 18:47:32;;;;;;;;;;;;;;;;;;4187935;28;1909;-65
2023/12/28 18:49:52;;;;;;;;;;;;;;;;;;4187654;28;2391;-66
2023/12/28 18:52:13;;;;;;;;;;;;;;;;;;4187797;28;1026;-65
2023/12/28 18:54:34;;;;;;;;;;;;;;;;;;4201044;28;1089;-66
2023/12/28 18:56:55;;;;;;;;;;;;;;;;;;4170643;28;819;-66
2023/12/28 18:59:16;;;;;;;;;;;;;;;;;;4182627;28;1307;-65
2023/12/28 19:01:37;;;;;;;;;;;;;;;;;;4187989;28;1810;-65
2023/12/28 19:03:58;;;;;;;;;;;;;;;;;;4188125;28;792;-65
2023/12/28 19:06:18;;;;;;;;;;;;;;;;;;4186542;28;1914;-65
2023/12/28 19:08:41;;;;;;;;;;;;;;;;;;4181360;28;1876;-65
2023/12/28 19:11:02;;;;;;;;;;;;;;;;;;4178933;28;1558;-65
2023/12/28 19:13:23;;;;;;;;;;;;;;;;;;4183111;28;1424;-65
2023/12/28 19:15:44;;;;;;;;;;;;;;;;;;4178757;28;1632;-64
2023/12/28 19:18:04;;;;;;;;;;;;;;;;;;4185499;28;1335;-65
2023/12/28 19:20:25;;;;;;;;;;;;;;;;;;4170777;28;1567;-65
2023/12/28 19:22:46;;;;;;;;;;;;;;;;;;4186297;28;1201;-65
2023/12/28 19:25:07;;;;;;;;;;;;;;;;;;4184053;28;1310;-65
2023/12/28 19:27:27;;;;;;;;;;;;;;;;;;4177670;28;1973;-65
2023/12/28 19:29:48;;;;;;;;;;;;;;;;;;4180334;28;1669;-65
2023/12/28 19:32:09;;;;;;;;;;;;;;;;;;4176546;28;1580;-65
2023/12/28 19:34:30;;;;;;;;;;;;;;;;;;4178420;28;1554;-65
2023/12/28 19:36:51;;;;;;;;;;;;;;;;;;4180361;28;2016;-65
2023/12/28 19:39:13;;;;;;;;;;;;;;;;;;4185000;28;1271;-65
2023/12/28 19:41:34;;;;;;;;;;;;;;;;;;4187413;28;2035;-65
2023/12/28 19:43:55;;;;;;;;;;;;;;;;;;4184115;28;1740;-65
2023/12/28 19:46:17;;;;;;;;;;;;;;;;;;4185466;28;1717;-64
2023/12/28 19:48:38;;;;;;;;;;;;;;;;;;4180184;28;1535;-65
2023/12/28 19:50:59;;;;;;;;;;;;;;;;;;4180168;28;1473;-64
2023/12/28 19:53:21;;;;;;;;;;;;;;;;;;4181077;28;1897;-68
2023/12/28 19:55:41;;;;;;;;;;;;;;;;;;4182769;28;1332;-65
2023/12/28 19:58:02;;;;;;;;;;;;;;;;;;4166380;28;1373;-65
2023/12/28 20:00:23;;;;;;;;;;;;;;;;;;4181976;28;1439;-66
2023/12/28 20:02:44;;;;;;;;;;;;;;;;;;4176393;28;1200;-66
2023/12/28 20:05:05;;;;;;;;;;;;;;;;;;4185204;28;1377;-66
2023/12/28 20:07:26;;;;;;;;;;;;;;;;;;4175820;28;1980;-65
2023/12/28 20:09:47;;;;;;;;;;;;;;;;;;4170433;28;1495;-67
2023/12/28 20:12:08;;;;;;;;;;;;;;;;;;4184943;28;1211;-66
2023/12/28 20:14:29;;;;;;;;;;;;;;;;;;4184388;28;12359;-67
2023/12/28 20:16:50;;;;;;;;;;;;;;;;;;4167654;28;1355;-66
2023/12/28 20:19:11;;;;;;;;;;;;;;;;;;4153295;28;982;-65
2023/12/28 20:21:33;;;;;;;;;;;;;;;;;;4164222;28;1544;-65
2023/12/28 20:23:54;;;;;;;;;;;;;;;;;;4168495;28;1310;-66
2023/12/28 20:26:16;;;;;;;;;;;;;;;;;;4163501;28;1443;-66
2023/12/28 20:28:36;;;;;;;;;;;;;;;;;;4161911;28;1906;-64
2023/12/28 20:30:57;;;;;;;;;;;;;;;;;;4161802;28;1493;-64
2023/12/28 20:33:18;;;;;;;;;;;;;;;;;;4166784;28;1263;-64
2023/12/28 20:35:39;;;;;;;;;;;;;;;;;;4167878;28;1393;-64
2023/12/28 20:37:59;;;;;;;;;;;;;;;;;;4166225;28;1526;-64
2023/12/28 20:40:20;;;;;;;;;;;;;;;;;;4164451;28;1552;-65
2023/12/28 20:42:40;;;;;;;;;;;;;;;;;;4159563;28;1597;-64
2023/12/28 20:45:01;;;;;;;;;;;;;;;;;;4161240;28;1451;-64
2023/12/28 20:47:22;;;;;;;;;;;;;;;;;;4165075;28;1922;-65
2023/12/28 20:49:45;;;;;;;;;;;;;;;;;;4165713;28;1212;-64
2023/12/28 20:52:06;;;;;;;;;;;;;;;;;;4166045;28;1457;-65
2023/12/28 20:54:27;;;;;;;;;;;;;;;;;;4165609;28;1292;-65
2023/12/28 20:56:48;;;;;;;;;;;;;;;;;;4163578;28;1410;-64
2023/12/28 20:59:08;;;;;;;;;;;;;;;;;;4163999;28;1479;-64
2023/12/28 21:01:29;;;;;;;;;;;;;;;;;;4159548;28;1534;-65
2023/12/28 21:03:50;;;;;;;;;;;;;;;;;;4160386;28;1348;-64
2023/12/28 21:06:11;;;;;;;;;;;;;;;;;;4160860;28;1582;-64
2023/12/28 21:08:33;;;;;;;;;;;;;;;;;;4160896;28;1902;-64
2023/12/28 21:10:56;;;;;;;;;;;;;;;;;;4161828;28;1493;-65
2023/12/28 21:13:18;;;;;;;;;;;;;;;;;;4161433;28;1429;-64
2023/12/28 21:16:48;;;;;;;;;;;;;;;;;;4230272;27;1279;-74
2023/12/28 21:19:10;;;;;;;;;;;;;;;;;;4224819;28;1264;-75
2023/12/28 21:21:31;;;;;;;;;;;;;;;;;;4227207;28;1548;-75
2023/12/28 21:23:55;;;;;;;;;;;;;;;;;;4226709;27;1394;-75
2023/12/28 21:26:16;;;;;;;;;;;;;;;;;;4228618;27;1993;-75
2023/12/28 21:28:37;;;;;;;;;;;;;;;;;;4231651;28;1352;-74
2023/12/28 21:30:59;;;;;;;;;;;;;;;;;;4230884;28;1570;-75
2023/12/28 21:33:20;;;;;;;;;;;;;;;;;;4232294;28;1289;-74
2023/12/28 21:35:50;;;;;;;;;;;;;;;;;;4232775;28;1902;-74
2023/12/28 21:38:19;;;;;;;;;;;;;;;;;;4231510;28;1395;-74
2023/12/28 21:40:47;;;;;;;;;;;;;;;;;;4231231;28;1538;-75
2023/12/28 21:43:10;;;;;;;;;;;;;;;;;;4231334;27;1489;-74
2023/12/28 21:45:31;;;;;;;;;;;;;;;;;;4231140;28;1514;-75
2023/12/28 21:47:52;;;;;;;;;;;;;;;;;;4229733;28;1509;-74
2023/12/28 21:50:13;;;;;;;;;;;;;;;;;;4233355;28;1508;-73
2023/12/28 21:52:34;;;;;;;;;;;;;;;;;;4230803;27;1600;-73
2023/12/28 21:54:55;;;;;;;;;;;;;;;;;;4216749;28;1340;-73
2023/12/28 21:57:16;;;;;;;;;;;;;;;;;;4230758;28;1515;-73
2023/12/28 21:59:37;;;;;;;;;;;;;;;;;;4215639;28;1464;-73
2023/12/28 22:01:57;;;;;;;;;;;;;;;;;;4231554;27;1560;-73
2023/12/28 22:04:20;;;;;;;;;;;;;;;;;;4230332;28;1213;-73
2023/12/28 22:06:41;;;;;;;;;;;;;;;;;;4230832;27;1458;-71
2023/12/28 22:09:03;;;;;;;;;;;;;;;;;;4231272;28;1279;-72
2023/12/28 22:11:23;;;;;;;;;;;;;;;;;;4228212;28;1646;-74
2023/12/28 22:13:44;;;;;;;;;;;;;;;;;;4229708;28;1504;-74
2023/12/28 22:16:05;;;;;;;;;;;;;;;;;;4227695;27;1914;-73
2023/12/28 22:21:26;;;;;;;;;;;;;;;;;;4223791;28;1551;-73
2023/12/28 22:23:49;;;;;;;;;;;;;;;;;;4229198;27;1448;-74
2023/12/28 22:26:10;;;;;;;;;;;;;;;;;;4227659;27;1840;-74
2023/12/28 22:28:31;;;;;;;;;;;;;;;;;;4216889;28;1450;-74
2023/12/28 22:30:52;;;;;;;;;;;;;;;;;;4221785;28;1602;-73
2023/12/28 22:33:13;;;;;;;;;;;;;;;;;;4201263;28;1672;-73
2023/12/28 22:35:34;;;;;;;;;;;;;;;;;;4215330;28;2030;-73
2023/12/28 22:37:55;;;;;;;;;;;;;;;;;;4204168;28;1766;-73
2023/12/28 22:40:16;;;;;;;;;;;;;;;;;;4210225;28;1090;-73
2023/12/28 22:42:36;;;;;;;;;;;;;;;;;;4214415;28;1743;-72
2023/12/28 22:44:57;;;;;;;;;;;;;;;;;;4218613;28;1374;-73
2023/12/28 22:47:19;;;;;;;;;;;;;;;;;;4213938;28;1806;-73
2023/12/28 22:49:41;;;;;;;;;;;;;;;;;;4219070;28;1378;-73
2023/12/28 22:52:01;;;;;;;;;;;;;;;;;;4217467;28;1689;-73
2023/12/28 22:54:23;;;;;;;;;;;;;;;;;;4220984;28;1674;-73
2023/12/28 22:56:43;;;;;;;;;;;;;;;;;;4218942;28;2003;-73
2023/12/28 22:59:04;;;;;;;;;;;;;;;;;;4219535;28;1362;-73
2023/12/28 23:01:25;;;;;;;;;;;;;;;;;;4218336;28;1491;-73
2023/12/28 23:03:46;;;;;;;;;;;;;;;;;;4219668;28;1710;-73
2023/12/28 23:06:08;;;;;;;;;;;;;;;;;;4220041;28;1571;-73
2023/12/28 23:08:28;;;;;;;;;;;;;;;;;;4218652;28;1614;-73
2023/12/28 23:10:50;;;;;;;;;;;;;;;;;;4221398;28;1245;-73
2023/12/28 23:13:11;;;;;;;;;;;;;;;;;;4222060;28;1754;-73
2023/12/28 23:15:32;;;;;;;;;;;;;;;;;;4221147;28;1918;-73
2023/12/28 23:17:53;;;;;;;;;;;;;;;;;;4221637;28;1484;-73
2023/12/28 23:20:14;;;;;;;;;;;;;;;;;;4218817;28;1050;-73
2023/12/28 23:22:35;;;;;;;;;;;;;;;;;;4204350;28;1600;-72
2023/12/28 23:24:56;;;;;;;;;;;;;;;;;;4203526;28;821;-73
2023/12/28 23:27:17;;;;;;;;;;;;;;;;;;4204830;28;1436;-73
2023/12/28 23:29:37;;;;;;;;;;;;;;;;;;4218933;28;818;-73
2023/12/28 23:31:58;;;;;;;;;;;;;;;;;;4220684;28;1544;-73
2023/12/28 23:34:19;;;;;;;;;;;;;;;;;;4228136;28;1088;-73
2023/12/28 23:36:40;;;;;;;;;;;;;;;;;;4237223;28;1914;-73
2023/12/28 23:39:01;;;;;;;;;;;;;;;;;;4219239;28;945;-73
2023/12/28 23:41:22;;;;;;;;;;;;;;;;;;4221151;28;1165;-73
2023/12/28 23:43:43;;;;;;;;;;;;;;;;;;4220935;28;2014;-72
2023/12/28 23:46:04;;;;;;;;;;;;;;;;;;4227859;28;1155;-73
2023/12/28 23:48:24;;;;;;;;;;;;;;;;;;4234060;28;1862;-73
2023/12/28 23:50:46;;;;;;;;;;;;;;;;;;4237739;27;1144;-73
2023/12/28 23:53:07;;;;;;;;;;;;;;;;;;4220803;28;1689;-73
2023/12/28 23:55:28;;;;;;;;;;;;;;;;;;4220980;28;852;-73
2023/12/28 23:57:49;;;;;;;;;;;;;;;;;;4220868;28;1445;-73
